Time;durP1;ratioP1;P1;durP2;ratioP2;P2;SDS_P1;SDS_P2;PMS_P1;PMS_P2;Temp;Humidity;BMP_temperature;BMP_pressure;BME280_temperature;BME280_humidity;BME280_pressure;Samples;Min_cycle;Max_cycle;Signal;HPM_P1;HPM_P2
2021/05/10 00:00:48;;;;;;;3.47;2.10;;;16.40;99.90;;;16.65;100.00;99872.34;5075221;28;20435;-68
2021/05/10 00:03:14;;;;;;;2.40;1.98;;;16.40;99.90;;;16.63;100.00;99866.28;5058068;28;20060;-68
2021/05/10 00:05:39;;;;;;;2.80;2.10;;;16.40;99.90;;;16.62;100.00;99861.88;5073859;28;20039;-69
2021/05/10 00:08:09;;;;;;;4.45;2.47;;;16.30;99.90;;;16.66;100.00;99857.53;5075032;28;20033;-71
2021/05/10 00:10:35;;;;;;;2.47;2.28;;;16.40;99.90;;;16.69;100.00;99851.50;5090740;28;20029;-68
2021/05/10 00:13:03;;;;;;;3.67;2.63;;;16.40;99.90;;;16.77;100.00;99848.25;5074221;28;20063;-67
2021/05/10 00:15:30;;;;;;;2.05;1.90;;;16.40;99.90;;;16.65;100.00;99842.13;5057013;28;20048;-67
2021/05/10 00:18:02;;;;;;;3.20;2.50;;;16.40;99.90;;;16.73;100.00;99852.59;5073582;28;20395;-61
2021/05/10 00:20:33;;;;;;;6.75;2.67;;;16.40;99.90;;;16.74;100.00;99848.78;5073668;28;20641;-63
2021/05/10 00:23:00;;;;;;;3.40;2.78;;;16.40;99.90;;;16.74;100.00;99846.03;5057434;28;20033;-62
2021/05/10 00:25:27;;;;;;;4.57;2.67;;;16.40;99.90;;;16.73;100.00;99835.28;5074131;28;20043;-62
2021/05/10 00:27:54;;;;;;;3.88;3.08;;;16.40;99.90;;;16.79;100.00;99835.06;5073441;28;20029;-64
2021/05/10 00:30:22;;;;;;;4.57;2.78;;;16.40;99.90;;;16.75;100.00;99833.94;5074698;28;20028;-62
2021/05/10 00:32:48;;;;;;;3.85;2.70;;;16.50;99.90;;;16.74;100.00;99829.53;5073596;28;20032;-62
2021/05/10 00:35:15;;;;;;;3.75;3.22;;;16.50;99.90;;;16.80;100.00;99819.41;5073412;28;20037;-62
2021/05/10 00:37:43;;;;;;;5.10;2.92;;;16.50;99.90;;;16.77;100.00;99826.25;5073404;28;20048;-61
2021/05/10 00:40:13;;;;;;;7.03;3.50;;;16.50;99.90;;;16.68;100.00;99823.19;5073312;28;20064;-63
2021/05/10 00:42:40;;;;;;;4.10;2.95;;;16.40;99.90;;;16.68;100.00;99827.84;5073362;28;20052;-62
2021/05/10 00:45:08;;;;;;;4.78;3.50;;;16.40;99.90;;;16.70;100.00;99831.19;5056410;28;20127;-62
2021/05/10 00:47:34;;;;;;;4.65;3.17;;;16.40;99.90;;;16.67;100.00;99828.94;5073421;28;20127;-62
2021/05/10 00:50:00;;;;;;;4.22;3.08;;;16.40;99.90;;;16.72;100.00;99801.47;5073566;28;20032;-62
2021/05/10 00:52:26;;;;;;;7.10;3.50;;;16.40;99.90;;;16.70;100.00;99807.25;5073132;28;20525;-62
2021/05/10 00:54:54;;;;;;;3.67;3.35;;;16.40;99.90;;;16.67;100.00;99804.22;5074381;28;20580;-68
2021/05/10 00:57:21;;;;;;;5.10;3.38;;;16.30;99.90;;;16.68;100.00;99803.13;5056381;28;20056;-64
2021/05/10 00:59:49;;;;;;;4.53;3.40;;;16.30;99.90;;;16.68;100.00;99794.88;5056168;28;20043;-62
2021/05/10 01:02:17;;;;;;;4.13;3.17;;;16.30;99.90;;;16.57;100.00;99793.13;5056270;28;20037;-62
2021/05/10 01:04:43;;;;;;;5.30;3.22;;;16.30;99.90;;;16.62;100.00;99788.50;5072598;28;20387;-63
2021/05/10 01:07:09;;;;;;;5.68;3.75;;;16.40;99.90;;;16.65;100.00;99784.41;5072766;28;20040;-69
2021/05/10 01:09:35;;;;;;;5.05;4.55;;;16.30;99.90;;;16.55;100.00;99789.81;5056326;28;20116;-69
2021/05/10 01:12:01;;;;;;;5.28;4.03;;;16.30;99.90;;;16.58;100.00;99770.06;5056033;28;20047;-65
2021/05/10 01:14:27;;;;;;;6.10;3.50;;;16.30;99.90;;;16.56;100.00;99766.75;5072372;28;20205;-71
2021/05/10 01:16:52;;;;;;;5.63;3.67;;;16.30;99.90;;;16.39;100.00;99763.34;5072875;28;20036;-69
2021/05/10 01:19:21;;;;;;;7.30;3.78;;;16.20;99.90;;;16.37;100.00;99765.50;5072434;28;20383;-68
2021/05/10 01:21:50;;;;;;;5.07;3.80;;;16.10;99.90;;;16.41;100.00;99766.66;5072618;28;20028;-67
2021/05/10 01:24:17;;;;;;;6.75;4.78;;;16.10;99.90;;;16.33;100.00;99766.06;5072482;28;20089;-75
2021/05/10 01:26:43;;;;;;;5.35;3.20;;;16.10;99.90;;;16.31;100.00;99787.47;5055769;28;20113;-67
2021/05/10 01:29:10;;;;;;;6.07;3.80;;;16.10;99.90;;;16.26;100.00;99779.19;5072356;28;20041;-72
2021/05/10 01:31:35;;;;;;;6.13;3.55;;;16.00;99.90;;;16.17;100.00;99782.69;5055762;28;20036;-69
2021/05/10 01:34:02;;;;;;;4.75;4.20;;;16.00;99.90;;;16.18;100.00;99795.31;5072172;28;20114;-71
2021/05/10 01:36:27;;;;;;;6.50;4.07;;;15.90;99.90;;;16.13;100.00;99820.00;5072552;28;20194;-67
2021/05/10 01:38:53;;;;;;;7.90;3.72;;;15.90;99.90;;;16.06;100.00;99800.16;5072030;28;20039;-64
2021/05/10 01:41:19;;;;;;;4.22;2.70;;;15.80;99.90;;;15.85;100.00;99791.75;5073226;28;20086;-69
2021/05/10 01:43:45;;;;;;;8.75;4.03;;;15.80;99.90;;;15.78;100.00;99776.59;5071755;28;20054;-64
2021/05/10 01:46:10;;;;;;;5.10;2.92;;;15.70;99.90;;;15.76;100.00;99778.78;5072084;28;20138;-66
2021/05/10 01:48:36;;;;;;;4.57;2.78;;;15.70;99.90;;;15.79;100.00;99764.53;5071931;28;20029;-66
2021/05/10 01:51:02;;;;;;;6.88;3.15;;;15.70;99.90;;;15.89;100.00;99770.13;5073626;28;20028;-64
2021/05/10 01:53:29;;;;;;;5.13;3.33;;;15.70;99.90;;;15.98;100.00;99766.63;5055370;28;20044;-63
2021/05/10 01:55:55;;;;;;;7.35;3.20;;;15.70;99.90;;;15.91;100.00;99754.22;5072316;28;20043;-64
2021/05/10 01:58:20;;;;;;;5.28;2.78;;;15.70;99.90;;;16.01;100.00;99762.53;5072078;28;20032;-63
2021/05/10 02:00:48;;;;;;;4.38;3.38;;;15.70;99.90;;;16.04;100.00;99761.16;5054998;28;20445;-64
2021/05/10 02:03:22;;;;;;;3.67;3.05;;;15.80;99.90;;;16.07;100.00;99750.50;5071696;28;20122;-63
2021/05/10 02:05:51;;;;;;;6.43;3.45;;;15.80;99.90;;;16.09;100.00;99745.56;5071642;28;20040;-64
2021/05/10 02:08:19;;;;;;;3.97;3.17;;;15.80;99.90;;;16.05;100.00;99747.16;5055060;28;20036;-63
2021/05/10 02:10:50;;;;;;;4.30;3.08;;;15.80;99.90;;;16.04;100.00;99740.03;5071691;28;20032;-64
2021/05/10 02:13:21;;;;;;;4.57;2.92;;;15.90;99.90;;;15.94;100.00;99731.72;5071655;28;20042;-64
2021/05/10 02:15:54;;;;;;;5.50;3.25;;;15.90;99.90;;;15.93;100.00;99711.69;5055359;28;20028;-63
2021/05/10 02:18:25;;;;;;;4.95;3.35;;;15.80;99.90;;;16.08;100.00;99708.22;5088319;28;20047;-63
2021/05/10 02:20:51;;;;;;;6.97;3.42;;;15.80;99.90;;;15.89;100.00;99698.75;5071502;28;20033;-65
2021/05/10 02:23:26;;;;;;;3.17;2.88;;;15.80;99.90;;;15.76;100.00;99691.81;5071645;28;20032;-64
2021/05/10 02:25:55;;;;;;;5.03;3.17;;;15.80;99.90;;;15.75;100.00;99694.81;5072753;28;20136;-64
2021/05/10 02:28:24;;;;;;;4.70;3.38;;;15.70;99.90;;;15.83;100.00;99700.63;5071604;28;20035;-64
2021/05/10 02:30:56;;;;;;;4.22;3.83;;;15.70;99.90;;;15.83;100.00;99699.78;5071301;28;20037;-68
2021/05/10 02:33:26;;;;;;;5.38;3.58;;;15.70;99.90;;;15.82;100.00;99692.66;5054894;28;20029;-69
2021/05/10 02:35:54;;;;;;;6.15;3.65;;;15.60;99.90;;;15.70;100.00;99694.75;5071590;28;20124;-69
2021/05/10 02:38:21;;;;;;;8.98;4.70;;;15.50;99.90;;;15.70;100.00;99678.28;5054760;28;20043;-68
2021/05/10 02:40:48;;;;;;;5.35;3.90;;;15.60;99.90;;;15.70;100.00;99678.28;5072760;28;20024;-67
2021/05/10 02:43:20;;;;;;;4.95;3.75;;;15.50;99.90;;;15.68;100.00;99675.00;5071415;28;20039;-67
2021/05/10 02:45:46;;;;;;;5.93;3.80;;;15.60;99.90;;;15.73;100.00;99673.09;5054844;28;20026;-66
2021/05/10 02:48:13;;;;;;;4.28;3.50;;;15.60;99.90;;;15.74;100.00;99663.78;5071437;28;20044;-71
2021/05/10 02:50:39;;;;;;;5.22;3.92;;;15.50;99.90;;;15.76;100.00;99660.78;5071460;28;20028;-64
2021/05/10 02:53:05;;;;;;;4.97;3.95;;;15.50;99.90;;;15.70;100.00;99650.84;5054568;28;20050;-63
2021/05/10 02:55:31;;;;;;;5.38;4.07;;;15.40;99.90;;;15.49;100.00;99642.44;5073822;28;20095;-64
2021/05/10 02:57:57;;;;;;;6.32;3.65;;;15.40;99.90;;;15.49;100.00;99650.66;5076542;28;20414;-65
2021/05/10 03:00:28;;;;;;;5.68;4.13;;;15.40;99.90;;;15.51;100.00;99651.22;5076308;28;20047;-62
2021/05/10 03:02:56;;;;;;;6.30;4.30;;;15.40;99.90;;;15.50;100.00;99646.84;5074978;28;20032;-63
2021/05/10 03:05:24;;;;;;;5.85;4.00;;;15.40;99.90;;;15.50;100.00;99657.81;5091760;28;20098;-63
2021/05/10 03:07:50;;;;;;;7.40;4.18;;;15.30;99.90;;;15.52;100.00;99654.81;5076213;28;20486;-63
2021/05/10 03:10:19;;;;;;;7.20;4.53;;;15.30;99.90;;;15.59;100.00;99653.50;5076464;28;20098;-62
2021/05/10 03:12:46;;;;;;;5.63;4.85;;;15.40;99.90;;;15.48;100.00;99643.53;5058579;28;20036;-61
2021/05/10 03:15:15;;;;;;;6.63;4.32;;;15.30;99.90;;;15.49;100.00;99644.34;5058018;28;20051;-64
2021/05/10 03:17:41;;;;;;;6.50;4.70;;;15.30;99.90;;;15.53;100.00;99643.56;5074762;28;20032;-63
2021/05/10 03:20:12;;;;;;;4.85;4.18;;;15.30;99.90;;;15.51;100.00;99642.19;5057923;28;20032;-61
2021/05/10 03:22:38;;;;;;;8.00;4.80;;;15.30;99.90;;;15.47;100.00;99646.53;5074826;28;20074;-64
2021/05/10 03:25:07;;;;;;;4.97;4.47;;;15.30;99.90;;;15.22;100.00;99642.50;5074686;28;20036;-67
2021/05/10 03:27:40;;;;;;;8.07;5.25;;;15.20;99.90;;;15.39;100.00;99645.09;5074691;28;20040;-72
2021/05/10 03:30:12;;;;;;;11.85;4.85;;;15.20;99.90;;;15.26;100.00;99645.53;5075199;28;20043;-71
2021/05/10 03:32:40;;;;;;;10.45;5.05;;;15.20;99.90;;;15.34;100.00;99642.31;5058354;28;20488;-69
2021/05/10 03:35:08;;;;;;;9.98;4.85;;;15.20;99.90;;;15.38;100.00;99637.97;5057888;28;20033;-67
2021/05/10 03:37:34;;;;;;;8.18;5.03;;;15.20;99.90;;;15.35;100.00;99627.50;5074708;28;20037;-71
2021/05/10 03:40:00;;;;;;;6.50;5.18;;;15.20;99.90;;;15.38;100.00;99616.03;5058031;28;20041;-64
2021/05/10 03:42:26;;;;;;;6.25;5.47;;;15.20;99.90;;;15.37;100.00;99603.38;5074411;28;20423;-63
2021/05/10 03:44:53;;;;;;;9.68;5.03;;;15.20;99.90;;;15.31;100.00;99612.69;5074298;28;20040;-64
2021/05/10 03:47:20;;;;;;;11.75;5.47;;;15.20;99.90;;;15.35;100.00;99602.03;5074340;28;20036;-63
2021/05/10 03:49:46;;;;;;;8.50;5.82;;;15.20;99.90;;;15.43;100.00;99596.03;5058047;28;20052;-64
2021/05/10 03:52:12;;;;;;;8.63;5.65;;;15.20;99.90;;;15.32;100.00;99589.66;5074195;28;20033;-66
2021/05/10 03:54:39;;;;;;;7.85;5.75;;;15.20;99.90;;;15.44;100.00;99584.81;5073998;28;20036;-65
2021/05/10 03:57:06;;;;;;;8.07;5.75;;;15.20;99.90;;;15.51;100.00;99588.16;5074097;28;20495;-64
2021/05/10 03:59:31;;;;;;;8.75;5.53;;;15.30;99.90;;;15.50;100.00;99581.00;5057419;28;20036;-66
2021/05/10 04:02:01;;;;;;;6.13;5.57;;;15.30;99.90;;;15.53;100.00;99583.22;5074267;28;20376;-64
2021/05/10 04:04:38;;;;;;;11.45;7.00;;;15.30;99.90;;;15.61;100.00;99581.94;5041740;28;20043;-63
2021/05/10 04:14:52;;;;;;;8.13;5.35;;;15.40;99.90;;;15.65;100.00;99579.50;5073661;28;20572;-65
2021/05/10 04:17:18;;;;;;;7.97;5.93;;;15.40;99.90;;;15.68;100.00;99581.72;5073756;28;20060;-65
2021/05/10 04:19:44;;;;;;;6.75;6.05;;;15.40;99.90;;;15.66;100.00;99572.91;5074893;28;20119;-64
2021/05/10 04:22:10;;;;;;;9.65;6.00;;;15.40;99.90;;;15.64;100.00;99572.34;5073701;28;20379;-62
2021/05/10 04:24:36;;;;;;;10.23;5.82;;;15.40;99.90;;;15.60;100.00;99572.88;5073591;28;20031;-67
2021/05/10 04:27:04;;;;;;;7.28;6.10;;;15.50;99.90;;;15.63;100.00;99590.72;5074882;28;20471;-66
2021/05/10 04:29:30;;;;;;;5.82;5.10;;;15.40;99.90;;;15.65;100.00;99593.22;5057471;28;20036;-64
2021/05/10 04:31:56;;;;;;;8.25;6.15;;;15.50;99.90;;;15.61;100.00;99596.47;5073621;28;20391;-68
2021/05/10 04:34:22;;;;;;;9.02;6.28;;;15.40;99.90;;;15.75;100.00;99594.09;5074662;28;20045;-62
2021/05/10 04:36:48;;;;;;;5.15;4.45;;;15.50;99.90;;;15.78;100.00;99601.00;5056923;28;20068;-62
2021/05/10 04:39:13;;;;;;;6.10;5.20;;;15.60;99.90;;;15.87;100.00;99602.13;5073342;28;20487;-63
2021/05/10 04:41:39;;;;;;;6.60;5.00;;;15.60;99.90;;;15.92;100.00;99622.19;5090213;28;20056;-72
2021/05/10 04:44:05;;;;;;;7.70;5.32;;;15.70;99.90;;;15.87;100.00;99613.94;5074436;28;20060;-64
2021/05/10 04:46:31;;;;;;;7.10;4.93;;;15.70;99.90;;;16.05;100.00;99631.03;5056379;28;20521;-67
2021/05/10 04:48:57;;;;;;;5.82;4.43;;;15.80;99.90;;;16.01;100.00;99640.91;5074643;28;20060;-65
2021/05/10 04:51:23;;;;;;;4.60;3.70;;;15.80;99.90;;;16.00;100.00;99653.81;5074078;28;20068;-67
2021/05/10 04:53:49;;;;;;;6.60;4.05;;;15.90;99.90;;;16.00;100.00;99673.03;5073734;28;20439;-64
2021/05/10 04:56:15;;;;;;;5.93;3.75;;;15.90;99.90;;;16.01;100.00;99668.38;5073280;28;20032;-67
2021/05/10 04:58:42;;;;;;;6.22;3.40;;;15.90;99.90;;;15.93;100.00;99675.16;5074046;28;20057;-65
2021/05/10 05:01:08;;;;;;;4.70;2.67;;;16.00;99.90;;;15.85;100.00;99697.63;5074156;28;20063;-66
2021/05/10 05:03:33;;;;;;;9.20;3.42;;;15.90;99.90;;;15.79;100.00;99726.94;5056055;28;20474;-68
2021/05/10 05:05:59;;;;;;;3.90;2.28;;;15.80;99.90;;;15.74;100.00;99778.19;5072779;28;20047;-68
2021/05/10 05:08:25;;;;;;;4.22;1.77;;;15.80;99.90;;;15.53;100.00;99783.47;5039671;28;20060;-70
2021/05/10 05:10:51;;;;;;;4.90;0.95;;;15.60;99.90;;;15.22;100.00;99776.00;5072641;28;20547;-68
2021/05/10 05:13:25;;;;;;;2.45;0.68;;;15.50;99.90;;;14.95;100.00;99750.47;5056107;28;20475;-71
2021/05/10 05:15:51;;;;;;;1.85;0.90;;;15.20;99.90;;;15.00;100.00;99728.59;5073581;28;20045;-68
2021/05/10 05:18:17;;;;;;;4.93;0.85;;;15.00;99.90;;;14.97;100.00;99679.78;5071998;28;20165;-68
2021/05/10 05:20:44;;;;;;;1.85;1.13;;;14.90;99.90;;;14.98;100.00;99643.06;5072462;28;20444;-66
2021/05/10 05:23:22;;;;;;;3.08;1.00;;;14.80;99.90;;;14.84;100.00;99616.09;5072613;28;20037;-69
2021/05/10 05:26:01;;;;;;;8.82;1.23;;;14.80;99.90;;;14.90;100.00;99615.03;5072724;28;20202;-70
2021/05/10 05:28:29;;;;;;;4.93;0.85;;;14.70;99.90;;;14.98;100.00;99678.69;5056956;28;20025;-66
2021/05/10 05:30:56;;;;;;;3.72;1.10;;;14.70;99.90;;;14.80;100.00;99735.47;5072458;28;20041;-70
2021/05/10 05:33:22;;;;;;;2.75;0.60;;;14.70;99.90;;;14.73;100.00;99731.28;5072164;28;20055;-72
2021/05/10 05:35:48;;;;;;;5.18;1.13;;;14.60;99.90;;;14.72;100.00;99726.88;5055627;28;20032;-70
2021/05/10 05:38:14;;;;;;;5.97;1.45;;;14.60;99.90;;;14.64;100.00;99772.00;5072196;28;20040;-69
2021/05/10 05:40:42;;;;;;;4.03;1.85;;;14.50;99.90;;;14.56;100.00;99805.28;5072255;28;20028;-66
2021/05/10 05:43:09;;;;;;;1.25;0.60;;;14.50;99.90;;;14.51;100.00;99829.88;5072016;28;20035;-66
2021/05/10 05:45:37;;;;;;;3.78;0.75;;;14.50;99.90;;;14.44;100.00;99857.44;5055518;28;20044;-72
2021/05/10 05:48:06;;;;;;;4.30;0.73;;;14.50;99.90;;;14.41;100.00;99862.56;5072123;28;20494;-69
2021/05/10 05:50:33;;;;;;;5.70;1.25;;;14.40;99.90;;;14.50;100.00;99855.59;5055377;28;20119;-68
2021/05/10 05:52:59;;;;;;;6.55;1.15;;;14.40;99.90;;;14.55;100.00;99863.91;5071991;28;20029;-71
2021/05/10 05:55:25;;;;;;;3.50;0.88;;;14.40;99.90;;;14.50;100.00;99875.59;5055391;28;20055;-70
2021/05/10 05:57:51;;;;;;;2.25;1.25;;;14.40;99.90;;;14.51;100.00;99890.13;5072025;28;20036;-65
2021/05/10 06:00:17;;;;;;;4.65;0.93;;;14.40;99.90;;;14.51;100.00;99898.34;5071997;28;20177;-69
2021/05/10 06:02:43;;;;;;;2.47;1.67;;;14.40;99.90;;;14.53;100.00;99904.41;5072006;28;20028;-70
2021/05/10 06:05:13;;;;;;;3.33;0.70;;;14.50;99.90;;;14.59;100.00;99908.88;5072023;28;20036;-70
2021/05/10 06:07:41;;;;;;;5.45;0.73;;;14.50;99.90;;;14.64;100.00;99900.75;5055177;28;20040;-68
2021/05/10 06:10:12;;;;;;;3.78;1.45;;;14.50;99.90;;;14.52;100.00;99902.72;5073231;28;20040;-68
2021/05/10 06:12:39;;;;;;;1.50;0.93;;;14.60;99.90;;;14.54;100.00;99914.28;5056464;28;20070;-67
2021/05/10 06:15:09;;;;;;;1.75;0.70;;;14.60;99.90;;;14.64;100.00;99919.09;5072946;28;20061;-70
2021/05/10 06:17:38;;;;;;;1.33;0.95;;;14.60;99.90;;;14.67;100.00;99921.31;5071949;28;20043;-68
2021/05/10 06:20:06;;;;;;;5.15;1.17;;;14.60;99.90;;;14.77;100.00;99935.19;5073044;28;20098;-69
2021/05/10 06:22:32;;;;;;;0.98;0.70;;;14.70;99.90;;;14.87;100.00;99940.81;5072913;28;20112;-68
2021/05/10 06:24:58;;;;;;;1.70;0.65;;;14.80;99.90;;;14.88;100.00;99940.56;5072122;28;20068;-67
2021/05/10 06:27:24;;;;;;;1.63;0.70;;;14.80;99.90;;;14.97;100.00;99937.41;5071985;28;20352;-66
2021/05/10 06:29:50;;;;;;;1.75;0.70;;;14.80;99.90;;;15.01;100.00;99933.09;5073646;28;20486;-71
2021/05/10 06:32:16;;;;;;;2.80;0.85;;;14.90;99.90;;;15.02;100.00;99943.75;5075823;28;20040;-66
2021/05/10 06:34:42;;;;;;;1.67;0.60;;;14.90;99.90;;;15.18;100.00;99945.66;5075897;28;20038;-68
2021/05/10 06:37:08;;;;;;;0.65;0.65;;;15.00;99.90;;;15.24;100.00;99955.59;5075797;28;20520;-69
2021/05/10 06:39:33;;;;;;;1.90;0.65;;;15.00;99.90;;;15.23;100.00;99964.09;5076018;28;20036;-71
2021/05/10 06:41:59;;;;;;;2.40;1.08;;;15.10;99.90;;;15.23;100.00;99958.63;5059533;28;20036;-75
2021/05/10 06:44:26;;;;;;;3.60;0.70;;;15.10;99.90;;;15.19;100.00;99951.97;5076082;28;20117;-70
2021/05/10 06:46:51;;;;;;;1.00;0.50;;;15.10;99.90;;;15.02;100.00;99956.63;5059460;28;20467;-74
2021/05/10 06:49:17;;;;;;;5.10;0.80;;;15.10;99.90;;;15.14;100.00;99949.16;5076238;28;20032;-77
2021/05/10 06:51:43;;;;;;;1.63;0.80;;;15.10;99.90;;;15.22;100.00;99957.78;5075868;28;20075;-69
2021/05/10 06:54:09;;;;;;;2.05;1.00;;;15.20;99.90;;;15.53;100.00;99961.78;5076056;28;20044;-67
2021/05/10 06:56:34;;;;;;;0.85;0.60;;;15.30;99.90;;;15.79;100.00;99973.94;5075635;28;20086;-69
2021/05/10 06:59:00;;;;;;;1.40;0.93;;;15.50;99.90;;;15.93;100.00;99974.34;5058599;28;20067;-73
2021/05/10 07:01:26;;;;;;;2.78;1.05;;;15.70;99.90;;;15.81;100.00;99965.41;5075456;28;20111;-71
2021/05/10 07:03:52;;;;;;;2.58;0.63;;;15.70;99.90;;;15.82;100.00;99964.34;5058570;28;20445;-68
2021/05/10 07:06:19;;;;;;;4.07;1.05;;;15.70;99.90;;;15.93;100.00;99968.84;5075353;28;20079;-69
2021/05/10 07:08:45;;;;;;;1.50;0.80;;;15.80;99.90;;;15.85;100.00;99961.09;5075224;28;20090;-70
2021/05/10 07:11:11;;;;;;;0.95;0.77;;;15.80;99.90;;;15.77;100.00;99976.09;5058318;28;20461;-71
2021/05/10 07:13:37;;;;;;;2.08;1.38;;;15.80;99.90;;;15.63;100.00;99974.00;5076042;28;20112;-68
2021/05/10 07:16:03;;;;;;;1.60;1.50;;;15.70;99.90;;;15.65;100.00;99971.81;5074910;28;20110;-68
2021/05/10 07:18:28;;;;;;;2.35;1.90;;;15.70;99.90;;;15.64;100.00;99981.13;5074895;28;20407;-69
2021/05/10 07:20:54;;;;;;;1.80;1.65;;;15.70;99.90;;;15.68;100.00;100020.72;5074732;28;20045;-70
2021/05/10 07:23:21;;;;;;;4.30;0.98;;;15.70;99.90;;;15.38;100.00;100027.38;5058475;28;20040;-68
2021/05/10 07:25:50;;;;;;;1.27;0.65;;;15.50;99.90;;;15.11;100.00;100026.44;5074854;28;20063;-68
2021/05/10 07:28:18;;;;;;;2.17;0.63;;;15.20;99.90;;;14.77;100.00;100031.91;5074746;28;20063;-69
2021/05/10 07:30:46;;;;;;;2.38;0.50;;;15.00;99.90;;;14.65;100.00;100036.63;5074860;28;20040;-65
2021/05/10 07:33:12;;;;;;;1.67;0.63;;;14.80;99.90;;;14.50;100.00;100044.56;5074739;28;20394;-62
2021/05/10 07:35:39;;;;;;;4.18;1.17;;;14.60;99.90;;;14.45;100.00;100049.91;5074477;28;20510;-63
2021/05/10 07:38:05;;;;;;;3.45;0.80;;;14.50;99.90;;;14.24;100.00;100064.25;5057969;28;20034;-63
2021/05/10 07:40:31;;;;;;;7.15;1.42;;;14.30;99.90;;;14.33;100.00;100068.31;5074516;28;20052;-64
2021/05/10 07:42:59;;;;;;;5.22;1.35;;;14.30;99.90;;;14.39;100.00;100064.56;5074187;28;20027;-65
2021/05/10 07:45:25;;;;;;;5.38;1.35;;;14.30;99.90;;;14.39;100.00;100073.66;5058034;28;20041;-63
2021/05/10 07:47:54;;;;;;;5.03;1.05;;;14.30;99.90;;;14.46;100.00;100090.75;5058060;28;20562;-66
2021/05/10 07:50:26;;;;;;;5.68;1.30;;;14.30;99.90;;;14.38;100.00;100107.56;5074133;28;20399;-64
2021/05/10 07:52:52;;;;;;;4.15;1.58;;;14.20;99.90;;;14.49;100.00;100111.34;5057592;28;20475;-66
2021/05/10 07:55:20;;;;;;;2.58;1.10;;;14.30;99.90;;;14.58;100.00;100130.97;5075335;28;20047;-66
2021/05/10 07:57:46;;;;;;;5.25;1.98;;;14.30;99.90;;;14.38;100.00;100140.41;5074540;28;20032;-66
2021/05/10 08:00:18;;;;;;;7.55;1.95;;;14.30;99.90;;;14.51;100.00;100142.06;5057492;28;20032;-64
2021/05/10 08:02:45;;;;;;;5.05;1.45;;;14.30;99.90;;;14.50;100.00;100151.38;5074387;28;20033;-64
2021/05/10 08:05:13;;;;;;;2.60;1.13;;;14.30;99.90;;;14.42;100.00;100143.53;5057901;28;20032;-69
2021/05/10 08:07:40;;;;;;;7.28;2.08;;;14.40;99.90;;;14.63;100.00;100145.59;5090912;28;20062;-67
2021/05/10 08:10:08;;;;;;;4.40;1.45;;;14.40;99.90;;;14.73;100.00;100145.81;5074177;28;20531;-67
2021/05/10 08:12:34;;;;;;;5.45;1.92;;;14.50;99.90;;;14.89;100.00;100145.03;5074378;28;20028;-69
2021/05/10 08:15:00;;;;;;;4.60;1.95;;;14.60;99.90;;;14.97;100.00;100162.13;5057026;28;20052;-67
2021/05/10 08:17:28;;;;;;;9.05;1.85;;;14.80;99.90;;;15.53;100.00;100158.44;5074103;28;20078;-67
2021/05/10 08:19:54;;;;;;;8.00;2.20;;;15.10;99.90;;;15.70;100.00;100172.19;5073930;28;20024;-70
2021/05/10 08:22:19;;;;;;;5.25;1.65;;;15.30;99.90;;;15.64;100.00;100163.06;5057348;28;20039;-69
2021/05/10 08:24:45;;;;;;;6.00;2.30;;;15.40;99.90;;;15.69;100.00;100156.81;5073994;28;20482;-74
2021/05/10 08:27:11;;;;;;;7.40;1.50;;;15.40;99.90;;;15.66;100.00;100165.56;5074310;28;20041;-69
2021/05/10 08:29:37;;;;;;;3.28;1.75;;;15.40;99.90;;;15.60;100.00;100173.69;5074346;28;20516;-78
2021/05/10 08:32:03;;;;;;;4.68;1.42;;;15.50;99.90;;;15.88;100.00;100188.41;5075372;28;20081;-70
2021/05/10 08:34:29;;;;;;;5.47;1.65;;;15.60;99.90;;;15.91;100.00;100174.97;5074647;28;20082;-74
2021/05/10 08:36:55;;;;;;;3.53;1.60;;;15.80;99.90;;;16.04;99.34;100187.53;5073541;28;20107;-72
2021/05/10 08:39:22;;;;;;;4.07;1.30;;;15.80;99.90;;;16.08;98.56;100185.94;5074685;28;20043;-71
2021/05/10 08:41:47;;;;;;;4.78;1.80;;;16.00;99.90;;;16.43;97.01;100187.53;5074508;28;20024;-75
2021/05/10 08:44:14;;;;;;;6.05;1.42;;;16.10;99.90;;;16.99;94.09;100192.63;5075721;28;20372;-75
2021/05/10 08:46:42;;;;;;;12.88;2.17;;;16.40;99.90;;;17.44;92.41;100199.69;5074960;28;20050;-66
2021/05/10 08:49:09;;;;;;;2.78;1.10;;;16.80;99.90;;;17.74;90.91;100194.44;5073792;28;20052;-71
2021/05/10 08:51:38;;;;;;;2.38;1.20;;;17.20;99.90;;;17.61;89.72;100216.03;5073466;28;20040;-76
2021/05/10 08:54:25;;;;;;;6.72;1.65;;;17.30;99.90;;;17.71;90.40;100217.03;5072569;28;20086;-66
2021/05/10 08:56:56;;;;;;;3.67;1.65;;;17.40;99.90;;;17.29;90.64;100207.78;5074304;28;20368;-67
2021/05/10 08:59:24;;;;;;;3.10;1.05;;;17.30;99.90;;;17.13;91.59;100217.81;5073563;28;20166;-67
2021/05/10 09:02:01;;;;;;;4.47;1.13;;;17.20;99.90;;;16.99;92.09;100219.31;5056541;28;20425;-63
2021/05/10 09:04:39;;;;;;;4.95;0.82;;;17.10;99.90;;;17.39;90.12;100229.88;5056531;28;20483;-66
2021/05/10 09:07:14;;;;;;;2.58;1.35;;;17.10;99.90;;;17.71;91.02;100233.53;5072926;28;20436;-66
2021/05/10 09:10:00;;;;;;;2.25;1.15;;;17.30;99.90;;;19.05;86.14;100243.19;5072673;28;20407;-64
2021/05/10 09:12:46;;;;;;;2.95;1.20;;;18.10;99.90;;;20.53;81.33;100247.69;5089634;28;20024;-65
2021/05/10 09:15:23;;;;;;;8.20;1.33;;;19.20;99.90;;;20.97;76.15;100260.81;5089337;28;20127;-65
2021/05/10 09:17:59;;;;;;;7.43;1.20;;;19.90;99.90;;;20.85;75.80;100265.84;5072842;28;20428;-65
2021/05/10 09:20:29;;;;;;;3.45;1.30;;;20.30;99.90;;;21.02;73.65;100277.38;5073033;28;20059;-68
2021/05/10 09:23:15;;;;;;;5.82;1.90;;;20.50;99.90;;;21.54;73.79;100287.97;5073034;28;20036;-66
2021/05/10 09:25:55;;;;;;;2.35;0.95;;;20.80;99.90;;;21.84;64.91;100283.31;5072601;28;20032;-65
2021/05/10 09:28:25;;;;;;;4.30;1.20;;;21.60;99.90;;;22.90;57.82;100281.50;5089200;28;20128;-66
2021/05/10 09:31:07;;;;;;;7.75;1.00;;;22.00;98.90;;;23.89;56.67;100291.53;5072339;28;20111;-67
2021/05/10 09:33:35;;;;;;;5.68;0.93;;;22.80;99.50;;;25.33;48.21;100291.38;5056074;28;20032;-66
2021/05/10 09:36:06;;;;;;;5.60;1.30;;;23.60;97.30;;;26.72;44.89;100294.13;5072196;28;20025;-64
2021/05/10 09:38:38;;;;;;;2.67;0.60;;;24.90;97.40;;;27.06;41.20;100305.47;5072198;28;20411;-65
2021/05/10 09:41:06;;;;;;;4.97;1.02;;;25.70;95.00;;;25.94;41.99;100307.56;5072257;28;20025;-66
2021/05/10 09:43:36;;;;;;;4.90;0.85;;;25.80;92.90;;;24.94;46.04;100322.56;5073585;28;20115;-65
2021/05/10 09:46:13;;;;;;;2.65;1.10;;;25.30;93.30;;;24.02;47.40;100333.59;5072281;28;20537;-66
2021/05/10 09:48:41;;;;;;;4.20;0.90;;;24.50;93.00;;;23.44;49.24;100334.69;5055965;28;20183;-68
2021/05/10 09:51:10;;;;;;;3.42;0.70;;;23.90;94.10;;;22.90;49.10;100340.63;5072229;28;20028;-75
2021/05/10 09:53:55;;;;;;;5.05;1.23;;;23.40;93.70;;;22.41;51.46;100361.06;5073506;28;20067;-75
2021/05/10 09:59:00;;;;;;;5.80;1.02;;;22.50;95.00;;;21.56;52.73;100363.25;5073633;28;20482;-76
2021/05/10 10:01:38;;;;;;;;;;;22.00;94.50;;;21.14;55.52;100366.47;5056665;28;20028;-74
2021/05/10 10:04:04;;;;;;;2.58;0.90;;;21.70;95.50;;;22.37;52.11;100370.25;5056683;28;19913;-73
2021/05/10 10:06:30;;;;;;;6.43;1.27;;;21.90;95.90;;;23.63;48.49;100370.03;5055192;28;20106;-71
2021/05/10 10:08:57;;;;;;;1.75;0.63;;;22.60;95.30;;;23.59;46.27;100396.78;5072477;28;20394;-74
2021/05/10 10:11:25;;;;;;;6.50;1.17;;;23.10;94.40;;;23.36;45.57;100388.16;5072134;28;20090;-72
2021/05/10 10:13:57;;;;;;;5.22;1.20;;;23.10;92.80;;;23.19;46.93;100396.09;5071708;28;20032;-69
2021/05/10 10:16:30;;;;;;;4.93;1.23;;;23.10;93.20;;;22.64;46.58;100398.31;5071674;28;20052;-76
2021/05/10 10:19:05;;;;;;;5.20;1.55;;;23.00;92.70;;;22.54;48.05;100392.84;5055578;28;20032;-68
2021/05/10 10:21:32;;;;;;;6.75;1.63;;;22.80;93.10;;;23.02;47.26;100404.91;5055489;28;20036;-67
2021/05/10 10:24:06;;;;;;;7.60;1.67;;;22.90;93.50;;;22.39;46.59;100396.56;5071945;28;20525;-67
2021/05/10 10:26:38;;;;;;;7.60;1.42;;;22.80;92.40;;;21.86;50.04;100403.84;5072056;28;20391;-66